createdAt,value
2023-05-05T00:00:26.564Z,67.58
2023-05-05T00:01:26.575Z,67.88
2023-05-05T00:02:26.617Z,67.47
2023-05-05T00:03:26.664Z,67.58
2023-05-05T00:04:26.535Z,67.58
2023-05-05T00:05:26.555Z,67.58
2023-05-05T00:06:26.515Z,67.58
2023-05-05T00:07:26.485Z,67.68
2023-05-05T00:08:26.475Z,67.81
2023-05-05T00:09:26.502Z,67.91
2023-05-05T00:10:26.479Z,68.32
2023-05-05T00:11:26.462Z,68.32
2023-05-05T00:12:26.465Z,68.73
2023-05-05T00:13:26.453Z,69.23
2023-05-05T00:14:26.435Z,69.13
2023-05-05T00:15:26.437Z,68.93
2023-05-05T00:16:26.474Z,69.34
2023-05-05T00:17:26.425Z,69.43
2023-05-05T00:18:26.387Z,69.64
2023-05-05T00:19:26.375Z,69.78
2023-05-05T00:20:26.353Z,70.18
2023-05-05T00:21:26.376Z,70.08
2023-05-05T00:22:26.328Z,70.08
2023-05-05T00:23:26.329Z,70.28
2023-05-05T00:24:26.311Z,70.38
2023-05-05T00:25:26.296Z,70.38
2023-05-05T00:26:26.299Z,70.59
2023-05-05T00:27:26.283Z,70.89
2023-05-05T00:28:26.352Z,70.89
2023-05-05T00:29:26.260Z,70.79
2023-05-05T00:30:26.253Z,70.99
2023-05-05T00:31:26.256Z,70.79
2023-05-05T00:32:26.265Z,70.59
2023-05-05T00:33:26.280Z,70.79
2023-05-05T00:34:26.213Z,70.79
2023-05-05T00:35:26.206Z,70.79
2023-05-05T00:36:26.200Z,70.79
2023-05-05T00:37:26.197Z,70.62
2023-05-05T00:38:26.183Z,70.62
2023-05-05T00:39:26.167Z,70.68
2023-05-05T00:40:26.164Z,70.68
2023-05-05T00:41:26.157Z,70.68
2023-05-05T00:42:26.151Z,70.89
2023-05-05T00:43:26.126Z,71.23
2023-05-05T00:44:26.125Z,71.23
2023-05-05T00:45:26.095Z,71.12
2023-05-05T00:46:26.271Z,71.23
2023-05-05T00:47:26.111Z,71.84
2023-05-05T00:48:26.071Z,72.04
2023-05-05T00:49:26.075Z,72.25
2023-05-05T00:50:26.055Z,71.94
2023-05-05T00:51:26.041Z,72.04
2023-05-05T00:52:26.050Z,72.25
2023-05-05T00:53:26.022Z,72.25
2023-05-05T00:54:26.020Z,72.45
2023-05-05T00:55:26.027Z,72.78
2023-05-05T00:56:26.006Z,72.58
2023-05-05T00:57:25.977Z,72.55
2023-05-05T00:58:25.959Z,72.48
2023-05-05T00:59:25.957Z,72.48
2023-05-05T01:00:25.934Z,72.89
2023-05-05T01:01:26.004Z,72.89
2023-05-05T01:02:25.995Z,73.09
2023-05-05T01:03:26.023Z,73.19
2023-05-05T01:04:25.907Z,73.30
2023-05-05T01:05:25.971Z,73.60
2023-05-05T01:06:25.914Z,73.91
2023-05-05T01:07:25.875Z,73.80
2023-05-05T01:08:25.860Z,74.15
2023-05-05T01:09:31.883Z,74.24
2023-05-05T01:10:26.235Z,74.01
2023-05-05T01:11:25.871Z,74.01
2023-05-05T01:12:25.834Z,73.80
2023-05-05T01:13:25.812Z,73.63
2023-05-05T01:14:25.816Z,73.54
2023-05-05T01:15:25.808Z,73.54
2023-05-05T01:16:25.837Z,73.63
2023-05-05T01:17:25.780Z,74.24
2023-05-05T01:18:25.756Z,74.04
2023-05-05T01:19:25.764Z,74.45
2023-05-05T01:20:25.755Z,74.04
2023-05-05T01:21:25.723Z,74.04
2023-05-05T01:22:25.720Z,74.35
2023-05-05T01:23:25.722Z,74.24
2023-05-05T01:24:25.697Z,74.24
2023-05-05T01:25:25.695Z,74.45
2023-05-05T01:26:25.673Z,74.65
2023-05-05T01:27:25.658Z,74.45
2023-05-05T01:28:25.662Z,74.35
2023-05-05T01:29:25.686Z,74.45
2023-05-05T01:30:25.650Z,74.35
2023-05-05T01:31:25.660Z,74.45
2023-05-05T01:32:25.632Z,74.35
2023-05-05T01:33:25.620Z,74.15
2023-05-05T01:34:25.605Z,73.94
2023-05-05T01:35:25.588Z,74.15
2023-05-05T01:36:25.571Z,74.15
2023-05-05T01:37:25.578Z,74.45
2023-05-05T01:38:25.573Z,74.65
2023-05-05T01:39:25.565Z,74.85
2023-05-05T01:40:25.539Z,74.85
2023-05-05T01:41:25.564Z,74.85
2023-05-05T01:42:25.517Z,74.96
2023-05-05T01:43:25.510Z,74.85
2023-05-05T01:44:25.489Z,74.96
2023-05-05T01:45:25.490Z,74.85
2023-05-05T01:46:25.460Z,74.96
2023-05-05T01:47:25.521Z,74.76
2023-05-05T01:48:25.448Z,74.96
2023-05-05T01:49:25.479Z,74.55
2023-05-05T01:50:25.439Z,74.45
2023-05-05T01:51:25.436Z,74.45
2023-05-05T01:52:25.416Z,74.55
2023-05-05T01:53:25.408Z,74.45
2023-05-05T01:54:25.392Z,74.45
2023-05-05T01:55:25.375Z,74.76
2023-05-05T01:56:25.392Z,74.65
2023-05-05T01:57:25.398Z,74.76
2023-05-05T01:58:25.349Z,75.06
2023-05-05T01:59:25.337Z,74.85
2023-05-05T02:00:25.307Z,75.06
2023-05-05T02:01:25.377Z,74.96
2023-05-05T02:02:25.331Z,74.85
2023-05-05T02:03:25.554Z,74.76
2023-05-05T02:04:25.280Z,74.76
2023-05-05T02:05:25.263Z,75.06
2023-05-05T02:06:25.270Z,75.26
2023-05-05T02:07:25.251Z,75.46
2023-05-05T02:08:25.304Z,75.37
2023-05-05T02:09:25.231Z,75.16
2023-05-05T02:10:25.245Z,75.16
2023-05-05T02:11:25.233Z,75.46
2023-05-05T02:12:25.198Z,75.46
2023-05-05T02:13:25.219Z,75.57
2023-05-05T02:14:25.167Z,75.57
2023-05-05T02:15:25.189Z,75.60
2023-05-05T02:16:25.166Z,75.70
2023-05-05T02:17:25.205Z,75.81
2023-05-05T02:18:25.150Z,76.21
2023-05-05T02:19:25.134Z,76.31
2023-05-05T02:20:25.136Z,76.42
2023-05-05T02:21:25.117Z,76.31
2023-05-05T02:22:25.097Z,76.52
2023-05-05T02:23:25.095Z,76.76
2023-05-05T02:24:25.094Z,76.96
2023-05-05T02:25:25.082Z,77.17
2023-05-05T02:26:25.090Z,77.17
2023-05-05T02:27:25.045Z,77.06
2023-05-05T02:28:25.028Z,77.06
2023-05-05T02:29:25.051Z,77.17
2023-05-05T02:30:25.018Z,77.47
2023-05-05T02:31:25.026Z,77.47
2023-05-05T02:32:25.050Z,77.51
2023-05-05T02:33:24.996Z,77.81
2023-05-05T02:34:24.995Z,77.71
2023-05-05T02:35:24.998Z,78.12
2023-05-05T02:36:24.965Z,77.91
2023-05-05T02:37:24.975Z,77.81
2023-05-05T02:38:24.944Z,78.02
2023-05-05T02:39:24.949Z,77.81
2023-05-05T02:40:24.913Z,78.02
2023-05-05T02:41:24.898Z,77.81
2023-05-05T02:42:24.903Z,77.67
2023-05-05T02:43:24.920Z,77.78
2023-05-05T02:44:24.869Z,77.98
2023-05-05T02:45:24.867Z,77.87
2023-05-05T02:46:24.882Z,77.78
2023-05-05T02:47:24.893Z,77.61
2023-05-05T02:48:24.854Z,77.78
2023-05-05T02:49:24.822Z,77.98
2023-05-05T02:50:24.797Z,78.22
2023-05-05T02:51:24.801Z,77.98
2023-05-05T02:52:24.819Z,77.87
2023-05-05T02:53:24.774Z,77.78
2023-05-05T02:54:24.773Z,77.78
2023-05-05T02:55:24.795Z,78.08
2023-05-05T02:56:24.745Z,78.08
2023-05-05T02:57:24.767Z,78.32
2023-05-05T02:58:24.728Z,78.32
2023-05-05T02:59:24.717Z,78.08
2023-05-05T03:00:24.702Z,77.78
2023-05-05T03:01:24.756Z,77.78
2023-05-05T03:02:24.752Z,77.78
2023-05-05T03:03:24.741Z,77.78
2023-05-05T03:04:24.672Z,77.26
2023-05-05T03:05:24.648Z,77.47
2023-05-05T03:06:24.649Z,77.78
2023-05-05T03:07:24.638Z,77.78
2023-05-05T03:08:24.619Z,77.37
2023-05-05T03:09:24.617Z,77.37
2023-05-05T03:10:24.604Z,76.96
2023-05-05T03:11:24.604Z,76.86
2023-05-05T03:12:24.584Z,77.26
2023-05-05T03:13:24.583Z,77.17
2023-05-05T03:14:24.567Z,77.47
2023-05-05T03:15:24.573Z,77.57
2023-05-05T03:16:24.608Z,77.57
2023-05-05T03:17:24.611Z,77.67
2023-05-05T03:18:24.556Z,77.26
2023-05-05T03:19:24.520Z,77.47
2023-05-05T03:20:24.508Z,77.53
2023-05-05T03:21:24.514Z,77.67
2023-05-05T03:22:24.487Z,77.47
2023-05-05T03:23:24.509Z,77.57
2023-05-05T03:24:24.411Z,77.67
2023-05-05T03:25:24.413Z,77.67
2023-05-05T03:26:24.386Z,77.78
2023-05-05T03:27:24.389Z,77.78
2023-05-05T03:28:24.369Z,77.57
2023-05-05T03:29:24.354Z,77.37
2023-05-05T03:30:24.357Z,77.87
2023-05-05T03:31:24.347Z,78.08
2023-05-05T03:32:24.395Z,78.08
2023-05-05T03:33:24.321Z,78.28
2023-05-05T03:34:24.323Z,78.42
2023-05-05T03:35:24.301Z,78.22
2023-05-05T03:36:25.368Z,78.63
2023-05-05T03:37:24.269Z,78.83
2023-05-05T03:38:24.256Z,78.83
2023-05-05T03:39:24.264Z,78.93
2023-05-05T03:40:36.330Z,79.14
2023-05-05T03:41:24.239Z,79.14
2023-05-05T03:42:24.213Z,79.03
2023-05-05T03:43:24.227Z,79.03
2023-05-05T03:44:24.199Z,79.14
2023-05-05T03:45:24.228Z,79.10
2023-05-05T03:46:24.278Z,78.80
2023-05-05T03:47:24.984Z,78.80
2023-05-05T03:48:24.156Z,79.20
2023-05-05T03:49:24.134Z,78.69
2023-05-05T03:50:24.126Z,78.59
2023-05-05T03:51:24.126Z,78.49
2023-05-05T03:52:24.111Z,78.39
2023-05-05T03:53:24.112Z,78.08
2023-05-05T03:54:24.109Z,78.08
2023-05-05T03:55:24.091Z,78.28
2023-05-05T03:56:24.080Z,78.35
2023-05-05T03:57:24.076Z,77.94
2023-05-05T03:58:24.100Z,77.94
2023-05-05T03:59:24.040Z,77.74
2023-05-05T04:00:24.032Z,77.64
2023-05-05T04:01:24.029Z,77.64
2023-05-05T04:02:24.098Z,78.01
2023-05-05T04:03:24.073Z,77.50
2023-05-05T04:04:24.040Z,77.50
2023-05-05T04:05:23.980Z,77.50
2023-05-05T04:06:23.963Z,77.40
2023-05-05T04:07:23.965Z,77.50
2023-05-05T04:08:23.952Z,77.50
2023-05-05T04:09:23.931Z,77.29
2023-05-05T04:10:23.925Z,77.47
2023-05-05T04:11:23.924Z,77.26
2023-05-05T04:12:23.925Z,76.95
2023-05-05T04:13:23.890Z,76.86
2023-05-05T04:14:23.913Z,77.26
2023-05-05T04:15:23.892Z,77.16
2023-05-05T04:16:23.927Z,76.95
2023-05-05T04:17:23.878Z,77.36
2023-05-05T04:18:23.855Z,76.86
2023-05-05T04:19:23.838Z,76.65
2023-05-05T04:20:23.842Z,76.41
2023-05-05T04:21:23.829Z,76.41
2023-05-05T04:22:23.832Z,76.41
2023-05-05T04:23:23.800Z,76.72
2023-05-05T04:24:23.789Z,77.12
2023-05-05T04:25:23.824Z,76.72
2023-05-05T04:26:23.795Z,76.10
2023-05-05T04:27:23.754Z,76.21
2023-05-05T04:28:23.761Z,76.31
2023-05-05T04:29:23.751Z,76.45
2023-05-05T04:30:23.739Z,76.34
2023-05-05T04:31:23.802Z,76.41
2023-05-05T04:32:23.731Z,76.51
2023-05-05T04:33:23.679Z,77.12
2023-05-05T04:34:23.684Z,77.02
2023-05-05T04:35:23.717Z,76.92
2023-05-05T04:36:23.693Z,76.72
2023-05-05T04:37:23.667Z,76.72
2023-05-05T04:38:23.773Z,76.31
2023-05-05T04:39:23.737Z,76.28
2023-05-05T04:40:23.716Z,76.48
2023-05-05T04:41:23.674Z,76.68
2023-05-05T04:42:23.673Z,76.58
2023-05-05T04:43:23.606Z,76.37
2023-05-05T04:44:23.617Z,76.58
2023-05-05T04:45:23.567Z,76.68
2023-05-05T04:46:23.608Z,76.68
2023-05-05T04:47:23.554Z,76.58
2023-05-05T04:48:23.548Z,76.78
2023-05-05T04:49:23.543Z,76.98
2023-05-05T04:50:23.520Z,76.88
2023-05-05T04:51:23.518Z,76.37
2023-05-05T04:52:23.514Z,76.78
2023-05-05T04:53:23.501Z,77.09
2023-05-05T04:54:23.507Z,76.98
2023-05-05T04:55:23.471Z,77.29
2023-05-05T04:56:23.513Z,77.19
2023-05-05T04:57:23.440Z,77.59
2023-05-05T04:58:23.608Z,77.90
2023-05-05T04:59:23.411Z,78.00
2023-05-05T05:00:23.420Z,78.10
2023-05-05T05:01:23.415Z,77.39
2023-05-05T05:02:23.535Z,77.70
2023-05-05T05:03:23.611Z,77.49
2023-05-05T05:04:23.377Z,77.39
2023-05-05T05:05:23.392Z,77.49
2023-05-05T05:06:23.356Z,77.15
2023-05-05T05:07:23.365Z,76.95
2023-05-05T05:08:23.353Z,77.05
2023-05-05T05:09:23.335Z,76.95
2023-05-05T05:10:23.334Z,77.15
2023-05-05T05:11:23.296Z,77.59
2023-05-05T05:12:23.309Z,77.59
2023-05-05T05:13:23.330Z,77.45
2023-05-05T05:14:23.285Z,77.36
2023-05-05T05:15:23.243Z,77.56
2023-05-05T05:16:23.275Z,77.15
2023-05-05T05:17:23.261Z,76.71
2023-05-05T05:18:23.249Z,76.51
2023-05-05T05:19:23.221Z,76.10
2023-05-05T05:20:23.220Z,75.76
2023-05-05T05:21:23.256Z,75.25
2023-05-05T05:22:23.245Z,74.91
2023-05-05T05:23:23.180Z,74.51
2023-05-05T05:24:23.171Z,74.17
2023-05-05T05:25:23.177Z,73.56
2023-05-05T05:26:23.201Z,72.81
2023-05-05T05:27:23.132Z,72.41
2023-05-05T05:28:23.136Z,72.72
2023-05-05T05:29:23.175Z,71.17
2023-05-05T05:30:23.225Z,67.19
2023-05-05T05:31:23.168Z,62.71
2023-05-05T05:32:23.097Z,58.64
2023-05-05T05:33:23.088Z,56.02
2023-05-05T05:34:23.061Z,54.30
2023-05-05T05:35:23.056Z,51.29
2023-05-05T05:36:23.031Z,50.15
2023-05-05T05:37:23.022Z,48.40
2023-05-05T05:38:23.025Z,47.38
2023-05-05T05:39:23.030Z,46.96
2023-05-05T05:40:23.008Z,47.80
2023-05-05T05:41:22.981Z,50.64
2023-05-05T05:42:22.968Z,53.55
2023-05-05T05:43:22.963Z,55.33
2023-05-05T05:44:22.995Z,56.49
2023-05-05T05:45:23.028Z,58.15
2023-05-05T05:46:22.990Z,59.56
2023-05-05T05:47:22.981Z,58.83
2023-05-05T05:48:22.942Z,59.79
2023-05-05T05:49:22.925Z,61.05
2023-05-05T05:50:22.928Z,62.19
2023-05-05T05:51:22.886Z,62.83
2023-05-05T05:52:22.907Z,63.67
2023-05-05T05:53:22.876Z,64.30
2023-05-05T05:54:22.939Z,64.70
2023-05-05T05:55:22.858Z,64.70
2023-05-05T05:56:22.821Z,65.71
2023-05-05T05:57:22.838Z,67.26
2023-05-05T05:58:22.828Z,67.86
2023-05-05T05:59:22.799Z,68.07
2023-05-05T06:00:22.835Z,67.86
2023-05-05T06:01:22.845Z,67.26
2023-05-05T06:02:22.876Z,67.06
2023-05-05T06:03:22.905Z,67.02
2023-05-05T06:04:22.805Z,67.93
2023-05-05T06:05:22.743Z,65.92
2023-05-05T06:06:22.730Z,65.41
2023-05-05T06:07:22.718Z,65.21
2023-05-05T06:08:24.941Z,65.61
2023-05-05T06:09:22.743Z,65.71
2023-05-05T06:10:27.217Z,66.52
2023-05-05T06:11:22.676Z,66.89
2023-05-05T06:12:22.711Z,66.59
2023-05-05T06:13:22.697Z,65.88
2023-05-05T06:14:22.657Z,65.68
2023-05-05T06:15:22.696Z,65.48
2023-05-05T06:16:22.683Z,65.38
2023-05-05T06:17:22.624Z,65.15
2023-05-05T06:18:22.691Z,65.15
2023-05-05T06:19:22.588Z,64.95
2023-05-05T06:20:22.615Z,65.25
2023-05-05T06:21:22.594Z,65.65
2023-05-05T06:22:22.610Z,65.95
2023-05-05T06:23:22.580Z,65.35
2023-05-05T06:24:22.587Z,65.55
2023-05-05T06:25:22.530Z,65.65
2023-05-05T06:26:22.535Z,65.85
2023-05-05T06:27:22.502Z,65.62
2023-05-05T06:28:22.517Z,65.52
2023-05-05T06:29:22.536Z,65.22
2023-05-05T06:30:22.495Z,65.09
2023-05-05T06:31:22.532Z,64.98
2023-05-05T06:32:22.457Z,64.48
2023-05-05T06:33:22.452Z,64.28
2023-05-05T06:34:22.430Z,65.09
2023-05-05T06:35:22.461Z,65.09
2023-05-05T06:36:22.434Z,64.78
2023-05-05T06:37:22.404Z,63.98
2023-05-05T06:38:22.409Z,63.98
2023-05-05T06:39:22.394Z,63.98
2023-05-05T06:40:22.391Z,64.07
2023-05-05T06:41:22.370Z,64.18
2023-05-05T06:42:22.357Z,63.78
2023-05-05T06:43:22.375Z,63.78
2023-05-05T06:44:22.346Z,64.28
2023-05-05T06:45:22.356Z,63.78
2023-05-05T06:46:22.405Z,62.97
2023-05-05T06:47:22.294Z,63.47
2023-05-05T06:48:22.314Z,63.37
2023-05-05T06:49:22.343Z,63.78
2023-05-05T06:50:22.301Z,64.07
2023-05-05T06:51:22.264Z,63.98
2023-05-05T06:52:22.249Z,64.11
2023-05-05T06:53:22.245Z,63.81
2023-05-05T06:54:22.256Z,64.01
2023-05-05T06:55:22.221Z,64.11
2023-05-05T06:56:22.225Z,64.11
2023-05-05T06:57:22.190Z,64.31
2023-05-05T06:58:22.212Z,64.21
2023-05-05T06:59:22.214Z,64.38
2023-05-05T07:00:22.200Z,63.98
2023-05-05T07:01:22.332Z,63.47
2023-05-05T07:02:23.047Z,62.97
2023-05-05T07:03:22.278Z,63.95
2023-05-05T07:04:22.149Z,63.85
2023-05-05T07:05:22.209Z,63.65
2023-05-05T07:06:22.219Z,64.05
2023-05-05T07:07:22.176Z,63.04
2023-05-05T07:08:22.178Z,63.14
2023-05-05T07:09:22.085Z,63.54
2023-05-05T07:10:22.104Z,63.45
2023-05-05T07:11:22.864Z,63.54
2023-05-05T07:12:22.141Z,63.75
2023-05-05T07:13:22.123Z,63.54
2023-05-05T07:14:24.356Z,63.14
2023-05-05T07:15:28.660Z,63.45
2023-05-05T07:16:22.023Z,63.65
2023-05-05T07:17:22.044Z,64.55
2023-05-05T07:18:21.996Z,64.86
2023-05-05T07:19:21.984Z,64.65
2023-05-05T07:20:22.045Z,64.38
2023-05-05T07:21:22.004Z,64.89
2023-05-05T07:22:21.967Z,66.30
2023-05-05T07:23:21.961Z,66.39
2023-05-05T07:24:21.927Z,67.10
2023-05-05T07:25:22.045Z,67.43
2023-05-05T07:26:22.030Z,67.63
2023-05-05T07:27:21.952Z,67.87
2023-05-05T07:28:21.923Z,68.77
2023-05-05T07:29:21.877Z,69.08
2023-05-05T07:30:22.073Z,68.48
2023-05-05T07:31:21.922Z,69.21
2023-05-05T07:32:21.964Z,70.42
2023-05-05T07:33:21.870Z,71.94
2023-05-05T07:34:21.850Z,71.13
2023-05-05T07:35:22.096Z,71.13
2023-05-05T07:36:21.815Z,72.78
2023-05-05T07:37:21.780Z,72.27
2023-05-05T07:38:21.780Z,72.88
2023-05-05T07:39:21.777Z,73.18
2023-05-05T07:40:21.798Z,75.00
2023-05-05T07:41:21.753Z,76.11
2023-05-05T07:42:21.744Z,77.86
2023-05-05T07:43:21.725Z,76.95
2023-05-05T07:44:21.741Z,77.86
2023-05-05T07:45:21.818Z,77.29
2023-05-05T07:46:21.757Z,79.32
2023-05-05T07:47:21.750Z,79.82
2023-05-05T07:48:21.689Z,78.61
2023-05-05T07:49:21.746Z,80.53
2023-05-05T07:50:21.667Z,80.83
2023-05-05T07:51:21.859Z,81.34
2023-05-05T07:52:29.984Z,80.63
2023-05-05T07:53:21.626Z,79.32
2023-05-05T07:54:21.632Z,80.22
2023-05-05T07:55:21.623Z,82.35
2023-05-05T07:56:21.854Z,81.94
2023-05-05T07:57:21.572Z,81.54
2023-05-05T07:58:21.601Z,82.39
2023-05-05T07:59:21.588Z,81.07
2023-05-05T08:00:21.543Z,79.52
2023-05-05T08:01:21.581Z,80.93
2023-05-05T08:02:21.575Z,81.44
2023-05-05T08:03:21.638Z,81.54
2023-05-05T08:04:21.559Z,81.64
2023-05-05T08:05:21.486Z,80.22
2023-05-05T08:06:21.487Z,80.22
2023-05-05T08:07:21.515Z,79.92
2023-05-05T08:08:21.492Z,80.83
2023-05-05T08:09:21.464Z,81.84
2023-05-05T08:10:21.473Z,82.35
2023-05-05T08:11:21.461Z,83.15
2023-05-05T08:12:21.505Z,83.36
2023-05-05T08:13:21.450Z,82.45
2023-05-05T08:14:21.448Z,83.15
2023-05-05T08:15:21.412Z,81.94
2023-05-05T08:16:21.414Z,80.93
2023-05-05T08:17:21.458Z,80.22
2023-05-05T08:18:21.438Z,81.20
2023-05-05T08:19:28.929Z,79.68
2023-05-05T08:20:21.359Z,80.29
2023-05-05T08:21:21.323Z,80.55
2023-05-05T08:22:21.426Z,79.14
2023-05-05T08:23:21.352Z,77.62
2023-05-05T08:24:21.312Z,77.59
2023-05-05T08:25:21.301Z,78.76
2023-05-05T08:26:21.298Z,78.96
2023-05-05T08:27:21.285Z,77.75
2023-05-05T08:28:21.272Z,77.21
2023-05-05T08:29:21.248Z,77.62
2023-05-05T08:30:21.232Z,76.54
2023-05-05T08:31:21.290Z,75.23
2023-05-05T08:32:21.241Z,75.63
2023-05-05T08:33:21.223Z,76.71
2023-05-05T08:34:21.202Z,76.61
2023-05-05T08:35:21.229Z,76.91
2023-05-05T08:36:21.187Z,75.50
2023-05-05T08:37:21.186Z,75.10
2023-05-05T08:38:21.161Z,75.20
2023-05-05T08:39:21.175Z,75.60
2023-05-05T08:40:21.251Z,75.30
2023-05-05T08:41:21.201Z,75.20
2023-05-05T08:42:35.624Z,75.70
2023-05-05T08:43:21.131Z,75.50
2023-05-05T08:44:21.117Z,75.74
2023-05-05T08:45:21.103Z,77.45
2023-05-05T08:46:21.129Z,76.34
2023-05-05T08:47:21.074Z,75.43
2023-05-05T08:48:21.056Z,75.34
2023-05-05T08:49:21.088Z,76.14
2023-05-05T08:50:21.043Z,75.34
2023-05-05T08:51:21.023Z,75.54
2023-05-05T08:52:21.077Z,75.94
2023-05-05T08:53:21.003Z,75.80
2023-05-05T08:54:21.000Z,76.20
2023-05-05T08:55:21.029Z,75.90
2023-05-05T08:56:20.970Z,76.40
2023-05-05T08:57:20.976Z,76.40
2023-05-05T08:58:20.946Z,76.44
2023-05-05T08:59:20.961Z,76.20
2023-05-05T09:00:20.945Z,76.71
2023-05-05T09:01:20.973Z,76.17
2023-05-05T09:02:20.936Z,75.16
2023-05-05T09:03:20.943Z,76.54
2023-05-05T09:04:20.909Z,75.06
2023-05-05T09:05:20.955Z,75.73
2023-05-05T09:06:20.883Z,75.63
2023-05-05T09:07:20.858Z,75.46
2023-05-05T09:08:20.894Z,75.96
2023-05-05T09:09:20.866Z,75.93
2023-05-05T09:10:20.825Z,75.63
2023-05-05T09:11:20.841Z,73.72
2023-05-05T09:12:20.817Z,73.61
2023-05-05T09:13:20.868Z,74.93
2023-05-05T09:14:20.799Z,75.43
2023-05-05T09:15:20.795Z,72.17
2023-05-05T09:16:20.898Z,73.88
2023-05-05T09:17:20.760Z,73.04
2023-05-05T09:18:20.801Z,72.84
2023-05-05T09:19:20.787Z,72.20
2023-05-05T09:20:20.778Z,71.63
2023-05-05T09:21:20.717Z,72.61
2023-05-05T09:22:20.695Z,73.71
2023-05-05T09:23:20.745Z,72.81
2023-05-05T09:24:20.673Z,71.20
2023-05-05T09:25:20.700Z,70.36
2023-05-05T09:26:20.683Z,70.36
2023-05-05T09:27:20.702Z,71.00
2023-05-05T09:28:20.666Z,69.39
2023-05-05T09:29:20.628Z,67.05
2023-05-05T09:30:20.698Z,68.12
2023-05-05T09:31:20.644Z,69.42
2023-05-05T09:32:20.616Z,66.38
2023-05-05T09:33:20.619Z,64.48
2023-05-05T09:34:20.587Z,65.55
2023-05-05T09:35:20.584Z,65.05
2023-05-05T09:36:20.573Z,62.34
2023-05-05T09:37:20.595Z,61.81
2023-05-05T09:38:20.538Z,63.01
2023-05-05T09:39:20.584Z,63.71
2023-05-05T09:40:20.713Z,62.48
2023-05-05T09:41:20.532Z,61.38
2023-05-05T09:42:20.530Z,61.85
2023-05-05T09:43:20.568Z,62.28
2023-05-05T09:44:20.532Z,62.78
2023-05-05T09:45:20.473Z,63.31
2023-05-05T09:46:20.624Z,62.51
2023-05-05T09:47:29.582Z,60.18
2023-05-05T09:48:20.443Z,59.28
2023-05-05T09:49:20.441Z,59.08
2023-05-05T09:50:20.521Z,60.08
2023-05-05T09:51:20.612Z,58.25
2023-05-05T09:52:20.445Z,57.15
2023-05-05T09:53:20.410Z,56.85
2023-05-05T09:54:20.367Z,57.15
2023-05-05T09:55:20.379Z,58.48
2023-05-05T09:56:20.401Z,58.28
2023-05-05T09:57:20.347Z,58.20
2023-05-05T09:58:20.440Z,59.20
2023-05-05T09:59:20.362Z,58.40
2023-05-05T10:00:20.339Z,58.43
2023-05-05T10:01:20.504Z,59.53
2023-05-05T10:02:20.296Z,58.86
2023-05-05T10:03:20.277Z,59.69
2023-05-05T10:04:20.277Z,59.99
2023-05-05T10:05:20.307Z,60.89
2023-05-05T10:06:20.263Z,60.62
2023-05-05T10:07:20.248Z,61.13
2023-05-05T10:08:20.277Z,61.05
2023-05-05T10:09:20.245Z,62.16
2023-05-05T10:10:20.227Z,62.46
2023-05-05T10:11:20.205Z,61.86
2023-05-05T10:12:20.190Z,61.25
2023-05-05T10:13:20.216Z,61.15
2023-05-05T10:14:20.183Z,61.66
2023-05-05T10:15:20.148Z,62.36
2023-05-05T10:16:20.214Z,62.46
2023-05-05T10:17:20.139Z,62.36
2023-05-05T10:18:20.136Z,63.36
2023-05-05T10:19:20.113Z,63.67
2023-05-05T10:20:20.092Z,63.26
2023-05-05T10:21:20.083Z,62.66
2023-05-05T10:22:20.081Z,62.36
2023-05-05T10:23:20.100Z,61.86
2023-05-05T10:24:20.100Z,62.23
2023-05-05T10:25:20.068Z,61.83
2023-05-05T10:26:20.072Z,61.72
2023-05-05T10:27:20.047Z,62.03
2023-05-05T10:28:20.063Z,62.26
2023-05-05T10:29:20.043Z,62.96
2023-05-05T10:30:19.993Z,63.19
2023-05-05T10:31:25.877Z,63.09
2023-05-05T10:32:46.664Z,63.29
2023-05-05T10:34:19.997Z,63.93
2023-05-05T10:35:19.946Z,64.13
2023-05-05T10:36:19.949Z,64.63
2023-05-05T10:37:19.953Z,65.13
2023-05-05T10:38:19.953Z,65.13
2023-05-05T10:39:19.963Z,65.53
2023-05-05T10:40:19.928Z,65.73
2023-05-05T10:41:19.922Z,64.56
2023-05-05T10:42:19.905Z,64.36
2023-05-05T10:43:19.884Z,64.56
2023-05-05T10:44:19.870Z,67.38
2023-05-05T10:45:19.936Z,69.99
2023-05-05T10:46:19.875Z,71.50
2023-05-05T10:47:19.870Z,70.79
2023-05-05T10:48:19.856Z,71.20
2023-05-05T10:49:19.829Z,72.00
2023-05-05T10:50:19.801Z,72.91
2023-05-05T10:51:30.951Z,72.00
2023-05-05T10:52:19.799Z,72.81
2023-05-05T10:53:19.764Z,73.11
2023-05-05T10:54:19.812Z,73.11
2023-05-05T10:55:19.748Z,73.27
2023-05-05T10:56:19.756Z,72.67
2023-05-05T10:57:19.754Z,72.77
2023-05-05T10:58:19.720Z,70.73
2023-05-05T10:59:19.708Z,70.32
2023-05-05T11:00:19.718Z,70.83
2023-05-05T11:01:19.760Z,70.50
2023-05-05T11:02:19.706Z,66.78
2023-05-05T11:03:19.805Z,68.08
2023-05-05T11:04:19.655Z,68.99
2023-05-05T11:05:19.697Z,68.68
2023-05-05T11:06:19.670Z,68.99
2023-05-05T11:07:19.672Z,67.58
2023-05-05T11:08:19.642Z,66.08
2023-05-05T11:09:19.616Z,65.27
2023-05-05T11:10:19.610Z,68.76
2023-05-05T11:11:19.588Z,67.14
2023-05-05T11:12:19.575Z,68.25
2023-05-05T11:13:19.671Z,67.32
2023-05-05T11:14:19.543Z,67.29
2023-05-05T11:15:19.565Z,67.18
2023-05-05T11:16:19.564Z,65.95
2023-05-05T11:17:19.570Z,65.95
2023-05-05T11:18:19.502Z,64.15
2023-05-05T11:19:19.531Z,61.14
2023-05-05T11:20:19.554Z,63.64
2023-05-05T11:21:19.482Z,62.71
2023-05-05T11:22:19.475Z,61.81
2023-05-05T11:23:19.474Z,62.41
2023-05-05T11:24:19.456Z,63.71
2023-05-05T11:25:19.502Z,62.78
2023-05-05T11:26:19.534Z,62.28
2023-05-05T11:27:19.457Z,62.78
2023-05-05T11:28:19.427Z,63.85
2023-05-05T11:29:19.416Z,61.65
2023-05-05T11:30:19.387Z,64.03
2023-05-05T11:31:19.502Z,63.92
2023-05-05T11:32:19.382Z,61.89
2023-05-05T11:33:19.383Z,60.19
2023-05-05T11:34:19.377Z,59.66
2023-05-05T11:35:19.346Z,61.29
2023-05-05T11:36:19.321Z,58.22
2023-05-05T11:37:19.369Z,59.89
2023-05-05T11:38:19.340Z,59.79
2023-05-05T11:39:19.321Z,59.79
2023-05-05T11:40:19.300Z,59.79
2023-05-05T11:41:19.280Z,57.89
2023-05-05T11:42:19.294Z,55.87
2023-05-05T11:43:19.301Z,56.96
2023-05-05T11:44:19.281Z,56.54
2023-05-05T11:45:19.245Z,55.94
2023-05-05T11:46:19.268Z,56.71
2023-05-05T11:47:19.258Z,55.21
2023-05-05T11:48:19.288Z,55.62
2023-05-05T11:49:19.209Z,54.44
2023-05-05T11:50:19.209Z,54.97
2023-05-05T11:51:19.188Z,55.17
2023-05-05T11:52:19.196Z,54.57
2023-05-05T11:53:19.160Z,54.49
2023-05-05T11:54:19.172Z,53.87
2023-05-05T11:55:19.149Z,53.27
2023-05-05T11:56:19.399Z,52.19
2023-05-05T11:57:19.129Z,52.09
2023-05-05T11:58:19.103Z,53.39
2023-05-05T11:59:19.099Z,52.99
2023-05-05T12:00:19.118Z,53.30
2023-05-05T12:01:19.081Z,51.50
2023-05-05T12:02:19.068Z,51.87
2023-05-05T12:03:19.272Z,52.47
2023-05-05T12:04:19.046Z,52.27
2023-05-05T12:05:19.030Z,52.64
2023-05-05T12:06:19.474Z,53.04
2023-05-05T12:07:19.038Z,53.84
2023-05-05T12:08:18.997Z,52.25
2023-05-05T12:09:18.996Z,52.34
2023-05-05T12:10:18.996Z,51.77
2023-05-05T12:11:19.012Z,51.67
2023-05-05T12:12:18.959Z,53.17
2023-05-05T12:13:19.081Z,53.27
2023-05-05T12:14:18.925Z,52.77
2023-05-05T12:15:18.937Z,52.94
2023-05-05T12:16:18.958Z,52.87
2023-05-05T12:17:18.930Z,53.07
2023-05-05T12:18:18.925Z,53.49
2023-05-05T12:19:18.987Z,54.60
2023-05-05T12:20:19.000Z,54.49
2023-05-05T12:21:19.007Z,52.59
2023-05-05T12:22:18.852Z,53.19
2023-05-05T12:23:18.877Z,52.69
2023-05-05T12:24:18.963Z,51.72
2023-05-05T12:25:18.850Z,52.32
2023-05-05T12:26:18.869Z,52.34
2023-05-05T12:27:18.869Z,52.44
2023-05-05T12:28:18.836Z,53.12
2023-05-05T12:29:18.820Z,52.62
2023-05-05T12:30:18.873Z,52.82
2023-05-05T12:31:18.816Z,52.19
2023-05-05T12:32:18.758Z,50.89
2023-05-05T12:33:18.790Z,50.82
2023-05-05T12:34:18.735Z,51.22
2023-05-05T12:35:18.727Z,51.34
2023-05-05T12:36:18.850Z,51.94
2023-05-05T12:37:18.703Z,51.92
2023-05-05T12:38:18.724Z,52.22
2023-05-05T12:39:18.749Z,52.32
2023-05-05T12:40:18.690Z,52.49
2023-05-05T12:41:18.701Z,53.99
2023-05-05T12:42:18.697Z,52.69
2023-05-05T12:43:18.651Z,53.19
2023-05-05T12:44:18.621Z,53.39
2023-05-05T12:45:18.635Z,53.37
2023-05-05T12:46:18.638Z,52.97
2023-05-05T12:47:18.608Z,52.17
2023-05-05T12:48:18.632Z,51.84
2023-05-05T12:49:18.625Z,50.84
2023-05-05T12:50:18.571Z,51.45
2023-05-05T12:51:18.612Z,51.75
2023-05-05T12:52:18.578Z,51.15
2023-05-05T12:53:18.584Z,51.87